Strona główna
METAR-TAF:

METAR-TAF

Lotnisko :

Port lotniczy Windawa

Windawa, Łotwa

Szerokość geograficzna: 57-21-28N, Długość geograficzna: 021-32-39E, wysokość: 6 m

Aktualna obserwacja pogody

Raport powstał 15 minut temu, godzina 00:20 UTC
Wiatr 1 kt z kierunków zmiennych
Temperatura 8°C
Wilgotność 100%
Ciśnienie 1019 hPa
Widzialność 10 km lub więcej
Brak chmur poniżej 1500 m i brak chmur cumulonimbus

METAR: EVVA 180020Z AUTO VRB01KT CAVOK 08/08 Q1019

czas: 03:35 (00:35 UTC)

Prognoza

Raport powstał 1 godzina i 13 minut temu, godzina 23:22 UTC
Prognoza ważna od 18 godzina 00 UTC do 18 godzina 09 UTC
Wiatr 5 kt od północny wschód
Widzialność 10 km lub więcej
Brak chmur poniżej 1500 m i brak chmur cumulonimbus
Przejściowo
od 18 godzina 00 UTC do 18 godzina 03 UTC
Widzialność: 0700 m
mgła,

TAF: EVVA 172322Z 1800/1809 05005KT CAVOK TEMPO 1800/1803 0700 FG

Obserwacja i prognoza pogody dla ponad 4000 lotnisk (raport METAR i TAF).

Dostępne stacje oznaczono żółtymi i czerwonymi punktami na mapie.

Najedź kursorem aby zobaczyć nazwę stacji.

Kliknij aby zobaczyć obserwacje i prognozy pogody.

Aby zmienić mapę: kliknij na zielony przycisk z czarnym krzyżykiem, aby powiększyć; na zielony przycisk z myślnikiem, aby pomniejszyć; na zielone strzałki, aby przejść do map sąsiednich.


METAR-TAF: